sensor_id;sensor_type;location;lat;lon;timestamp;temperature;humidity
23073;DHT22;67971;51.046;3.732;2023-07-02T00:01:44;18.70;99.90
23073;DHT22;67971;51.046;3.732;2023-07-02T00:04:10;18.60;99.90
23073;DHT22;67971;51.046;3.732;2023-07-02T00:06:39;18.50;99.90
23073;DHT22;67971;51.046;3.732;2023-07-02T00:09:09;18.60;99.90
23073;DHT22;67971;51.046;3.732;2023-07-02T00:11:41;18.60;99.90
23073;DHT22;67971;51.046;3.732;2023-07-02T00:14:07;18.60;99.90
23073;DHT22;67971;51.046;3.732;2023-07-02T00:16:34;18.70;99.90
23073;DHT22;67971;51.046;3.732;2023-07-02T00:19:00;18.70;99.90
23073;DHT22;67971;51.046;3.732;2023-07-02T00:21:26;18.60;99.90
23073;DHT22;67971;51.046;3.732;2023-07-02T00:23:54;18.60;99.90
23073;DHT22;67971;51.046;3.732;2023-07-02T00:26:23;18.60;99.90
23073;DHT22;67971;51.046;3.732;2023-07-02T00:28:49;18.60;99.90
23073;DHT22;67971;51.046;3.732;2023-07-02T00:31:15;18.50;99.90
23073;DHT22;67971;51.046;3.732;2023-07-02T00:33:40;18.50;99.90
23073;DHT22;67971;51.046;3.732;2023-07-02T00:36:06;18.50;99.90
23073;DHT22;67971;51.046;3.732;2023-07-02T00:38:31;18.50;99.90
23073;DHT22;67971;51.046;3.732;2023-07-02T00:40:57;18.50;99.90
23073;DHT22;67971;51.046;3.732;2023-07-02T00:43:23;18.50;99.90
23073;DHT22;67971;51.046;3.732;2023-07-02T00:45:49;18.60;99.90
23073;DHT22;67971;51.046;3.732;2023-07-02T00:48:15;18.60;99.90
23073;DHT22;67971;51.046;3.732;2023-07-02T00:50:41;18.50;99.90
23073;DHT22;67971;51.046;3.732;2023-07-02T00:53:06;18.60;99.90
23073;DHT22;67971;51.046;3.732;2023-07-02T00:55:32;18.60;99.90
23073;DHT22;67971;51.046;3.732;2023-07-02T00:57:58;18.60;99.90
23073;DHT22;67971;51.046;3.732;2023-07-02T01:00:23;18.60;99.90
23073;DHT22;67971;51.046;3.732;2023-07-02T01:02:56;18.50;99.90
23073;DHT22;67971;51.046;3.732;2023-07-02T01:05:26;18.40;99.90
23073;DHT22;67971;51.046;3.732;2023-07-02T01:07:57;18.40;99.90
23073;DHT22;67971;51.046;3.732;2023-07-02T01:10:23;18.50;99.90
23073;DHT22;67971;51.046;3.732;2023-07-02T01:12:49;18.60;99.90
23073;DHT22;67971;51.046;3.732;2023-07-02T01:15:15;18.70;99.90
23073;DHT22;67971;51.046;3.732;2023-07-02T01:17:40;18.60;99.90
23073;DHT22;67971;51.046;3.732;2023-07-02T01:20:09;18.50;99.90
23073;DHT22;67971;51.046;3.732;2023-07-02T01:22:35;18.40;99.90
23073;DHT22;67971;51.046;3.732;2023-07-02T01:25:01;18.40;99.90
23073;DHT22;67971;51.046;3.732;2023-07-02T01:27:30;18.40;99.90
23073;DHT22;67971;51.046;3.732;2023-07-02T01:29:56;18.40;99.90
23073;DHT22;67971;51.046;3.732;2023-07-02T01:32:22;18.40;99.90
23073;DHT22;67971;51.046;3.732;2023-07-02T01:34:48;18.50;99.90
23073;DHT22;67971;51.046;3.732;2023-07-02T01:37:15;18.50;99.90
23073;DHT22;67971;51.046;3.732;2023-07-02T01:39:42;18.50;99.90
23073;DHT22;67971;51.046;3.732;2023-07-02T01:42:09;18.50;99.90
23073;DHT22;67971;51.046;3.732;2023-07-02T01:44:35;18.20;99.90
23073;DHT22;67971;51.046;3.732;2023-07-02T01:47:01;18.30;99.90
23073;DHT22;67971;51.046;3.732;2023-07-02T01:49:26;18.30;99.90
23073;DHT22;67971;51.046;3.732;2023-07-02T01:51:53;18.20;99.90
23073;DHT22;67971;51.046;3.732;2023-07-02T01:54:20;18.30;99.90
23073;DHT22;67971;51.046;3.732;2023-07-02T01:56:46;18.30;99.90
23073;DHT22;67971;51.046;3.732;2023-07-02T01:59:12;18.40;99.90
23073;DHT22;67971;51.046;3.732;2023-07-02T02:01:38;18.50;99.90
23073;DHT22;67971;51.046;3.732;2023-07-02T02:04:07;18.50;99.90
23073;DHT22;67971;51.046;3.732;2023-07-02T02:06:33;18.50;99.90
23073;DHT22;67971;51.046;3.732;2023-07-02T02:08:59;18.50;99.90
23073;DHT22;67971;51.046;3.732;2023-07-02T02:11:25;18.50;99.90
23073;DHT22;67971;51.046;3.732;2023-07-02T02:13:51;18.50;99.90
23073;DHT22;67971;51.046;3.732;2023-07-02T02:16:16;18.40;99.90
23073;DHT22;67971;51.046;3.732;2023-07-02T02:18:42;18.40;99.90
23073;DHT22;67971;51.046;3.732;2023-07-02T02:21:08;18.50;99.90
23073;DHT22;67971;51.046;3.732;2023-07-02T02:23:33;18.40;99.90
23073;DHT22;67971;51.046;3.732;2023-07-02T02:25:59;18.30;99.90
23073;DHT22;67971;51.046;3.732;2023-07-02T02:28:25;18.40;99.90
23073;DHT22;67971;51.046;3.732;2023-07-02T02:30:51;18.40;99.90
23073;DHT22;67971;51.046;3.732;2023-07-02T02:33:16;18.30;99.90
23073;DHT22;67971;51.046;3.732;2023-07-02T02:35:42;18.30;99.90
23073;DHT22;67971;51.046;3.732;2023-07-02T02:38:07;18.30;99.90
23073;DHT22;67971;51.046;3.732;2023-07-02T02:40:33;18.30;99.90
23073;DHT22;67971;51.046;3.732;2023-07-02T02:43:00;18.40;99.90
23073;DHT22;67971;51.046;3.732;2023-07-02T02:45:25;18.30;99.90
23073;DHT22;67971;51.046;3.732;2023-07-02T02:47:51;18.30;99.90
23073;DHT22;67971;51.046;3.732;2023-07-02T02:50:17;18.30;99.90
23073;DHT22;67971;51.046;3.732;2023-07-02T02:52:42;18.20;99.90
23073;DHT22;67971;51.046;3.732;2023-07-02T02:55:09;18.10;99.90
23073;DHT22;67971;51.046;3.732;2023-07-02T02:57:36;18.00;99.90
23073;DHT22;67971;51.046;3.732;2023-07-02T03:00:02;18.10;99.90
23073;DHT22;67971;51.046;3.732;2023-07-02T03:02:28;18.20;99.90
23073;DHT22;67971;51.046;3.732;2023-07-02T03:04:53;18.20;99.90
23073;DHT22;67971;51.046;3.732;2023-07-02T03:07:19;18.00;99.90
23073;DHT22;67971;51.046;3.732;2023-07-02T03:09:45;18.00;99.90
23073;DHT22;67971;51.046;3.732;2023-07-02T03:12:11;17.90;99.90
23073;DHT22;67971;51.046;3.732;2023-07-02T03:14:36;17.90;99.90
23073;DHT22;67971;51.046;3.732;2023-07-02T03:17:02;17.90;99.90
23073;DHT22;67971;51.046;3.732;2023-07-02T03:19:28;18.00;99.90
23073;DHT22;67971;51.046;3.732;2023-07-02T03:21:54;17.80;99.90
23073;DHT22;67971;51.046;3.732;2023-07-02T03:24:20;17.80;99.90
23073;DHT22;67971;51.046;3.732;2023-07-02T03:26:45;17.80;99.90
23073;DHT22;67971;51.046;3.732;2023-07-02T03:29:11;17.80;99.90
23073;DHT22;67971;51.046;3.732;2023-07-02T03:31:37;17.90;99.90
23073;DHT22;67971;51.046;3.732;2023-07-02T03:34:08;17.80;99.90
23073;DHT22;67971;51.046;3.732;2023-07-02T03:36:35;17.80;99.90
23073;DHT22;67971;51.046;3.732;2023-07-02T03:39:00;17.80;99.90
23073;DHT22;67971;51.046;3.732;2023-07-02T03:41:26;17.90;99.90
23073;DHT22;67971;51.046;3.732;2023-07-02T03:43:52;17.90;99.90
23073;DHT22;67971;51.046;3.732;2023-07-02T03:46:17;17.80;99.90
23073;DHT22;67971;51.046;3.732;2023-07-02T03:48:43;18.00;99.90
23073;DHT22;67971;51.046;3.732;2023-07-02T03:51:08;18.10;99.90
23073;DHT22;67971;51.046;3.732;2023-07-02T03:53:34;18.10;99.90
23073;DHT22;67971;51.046;3.732;2023-07-02T03:56:00;18.20;99.90
23073;DHT22;67971;51.046;3.732;2023-07-02T03:58:25;18.20;99.90
23073;DHT22;67971;51.046;3.732;2023-07-02T04:00:51;18.00;99.90
23073;DHT22;67971;51.046;3.732;2023-07-02T04:03:17;18.10;99.90
23073;DHT22;67971;51.046;3.732;2023-07-02T04:05:43;18.00;99.90
23073;DHT22;67971;51.046;3.732;2023-07-02T04:08:09;18.00;99.90
23073;DHT22;67971;51.046;3.732;2023-07-02T04:10:35;18.00;99.90
23073;DHT22;67971;51.046;3.732;2023-07-02T04:13:01;18.10;99.90
23073;DHT22;67971;51.046;3.732;2023-07-02T04:15:26;18.10;99.90
23073;DHT22;67971;51.046;3.732;2023-07-02T04:17:52;18.00;99.90
23073;DHT22;67971;51.046;3.732;2023-07-02T04:20:19;18.00;99.90
23073;DHT22;67971;51.046;3.732;2023-07-02T04:22:45;17.90;99.90
23073;DHT22;67971;51.046;3.732;2023-07-02T04:25:12;17.90;99.90
23073;DHT22;67971;51.046;3.732;2023-07-02T04:27:42;17.90;99.90
23073;DHT22;67971;51.046;3.732;2023-07-02T04:30:08;17.90;99.90
23073;DHT22;67971;51.046;3.732;2023-07-02T04:32:38;17.90;99.90
23073;DHT22;67971;51.046;3.732;2023-07-02T04:35:08;17.90;99.90
23073;DHT22;67971;51.046;3.732;2023-07-02T04:37:34;17.90;99.90
23073;DHT22;67971;51.046;3.732;2023-07-02T04:40:00;17.90;99.90
23073;DHT22;67971;51.046;3.732;2023-07-02T04:42:26;17.90;99.90
23073;DHT22;67971;51.046;3.732;2023-07-02T04:44:57;18.00;99.90
23073;DHT22;67971;51.046;3.732;2023-07-02T04:47:28;18.20;99.90
23073;DHT22;67971;51.046;3.732;2023-07-02T04:49:54;18.20;99.90
23073;DHT22;67971;51.046;3.732;2023-07-02T04:52:19;18.20;99.90
23073;DHT22;67971;51.046;3.732;2023-07-02T04:54:45;18.30;99.90
23073;DHT22;67971;51.046;3.732;2023-07-02T04:57:11;18.20;99.90
23073;DHT22;67971;51.046;3.732;2023-07-02T04:59:36;18.20;99.90
23073;DHT22;67971;51.046;3.732;2023-07-02T05:02:02;18.20;99.90
23073;DHT22;67971;51.046;3.732;2023-07-02T05:04:28;18.30;99.90
23073;DHT22;67971;51.046;3.732;2023-07-02T05:06:53;18.40;99.90
23073;DHT22;67971;51.046;3.732;2023-07-02T05:09:19;18.50;99.90
23073;DHT22;67971;51.046;3.732;2023-07-02T05:11:44;18.50;99.90
23073;DHT22;67971;51.046;3.732;2023-07-02T05:14:10;18.50;99.90
23073;DHT22;67971;51.046;3.732;2023-07-02T05:16:36;18.50;99.90
23073;DHT22;67971;51.046;3.732;2023-07-02T05:19:01;18.70;99.90
23073;DHT22;67971;51.046;3.732;2023-07-02T05:21:27;18.70;99.90
23073;DHT22;67971;51.046;3.732;2023-07-02T05:23:53;18.80;99.90
23073;DHT22;67971;51.046;3.732;2023-07-02T05:26:18;18.80;99.90
23073;DHT22;67971;51.046;3.732;2023-07-02T05:28:44;18.90;99.90
23073;DHT22;67971;51.046;3.732;2023-07-02T05:31:10;18.90;99.90
23073;DHT22;67971;51.046;3.732;2023-07-02T05:33:35;18.80;99.90
23073;DHT22;67971;51.046;3.732;2023-07-02T05:36:01;18.80;99.90
23073;DHT22;67971;51.046;3.732;2023-07-02T05:38:26;18.80;99.90
23073;DHT22;67971;51.046;3.732;2023-07-02T05:40:52;18.90;99.90
23073;DHT22;67971;51.046;3.732;2023-07-02T05:43:18;19.00;99.90
23073;DHT22;67971;51.046;3.732;2023-07-02T05:45:43;19.20;99.90
23073;DHT22;67971;51.046;3.732;2023-07-02T05:48:09;19.30;99.90
23073;DHT22;67971;51.046;3.732;2023-07-02T05:50:35;19.30;99.90
23073;DHT22;67971;51.046;3.732;2023-07-02T05:53:00;19.40;99.90
23073;DHT22;67971;51.046;3.732;2023-07-02T05:55:26;19.40;99.90
23073;DHT22;67971;51.046;3.732;2023-07-02T05:57:52;19.50;99.90
23073;DHT22;67971;51.046;3.732;2023-07-02T06:00:17;19.60;99.90
23073;DHT22;67971;51.046;3.732;2023-07-02T06:02:46;19.80;99.90
23073;DHT22;67971;51.046;3.732;2023-07-02T06:05:12;20.00;99.90
23073;DHT22;67971;51.046;3.732;2023-07-02T06:07:37;20.00;99.90
23073;DHT22;67971;51.046;3.732;2023-07-02T06:10:03;19.90;99.90
23073;DHT22;67971;51.046;3.732;2023-07-02T06:12:29;20.00;99.90
23073;DHT22;67971;51.046;3.732;2023-07-02T06:14:54;20.20;99.90
23073;DHT22;67971;51.046;3.732;2023-07-02T06:17:20;20.40;99.90
23073;DHT22;67971;51.046;3.732;2023-07-02T06:19:48;20.40;99.90
23073;DHT22;67971;51.046;3.732;2023-07-02T06:22:13;20.50;99.90
23073;DHT22;67971;51.046;3.732;2023-07-02T06:24:39;20.60;99.90
23073;DHT22;67971;51.046;3.732;2023-07-02T06:27:04;20.70;99.90
23073;DHT22;67971;51.046;3.732;2023-07-02T06:29:30;20.60;99.90
23073;DHT22;67971;51.046;3.732;2023-07-02T06:31:56;20.60;99.90
23073;DHT22;67971;51.046;3.732;2023-07-02T06:34:21;20.70;99.90
23073;DHT22;67971;51.046;3.732;2023-07-02T06:36:48;20.70;99.90
23073;DHT22;67971;51.046;3.732;2023-07-02T06:39:13;20.70;99.90
23073;DHT22;67971;51.046;3.732;2023-07-02T06:41:39;20.80;99.90
23073;DHT22;67971;51.046;3.732;2023-07-02T06:44:05;20.80;99.90
23073;DHT22;67971;51.046;3.732;2023-07-02T06:46:32;21.10;99.90
23073;DHT22;67971;51.046;3.732;2023-07-02T06:48:57;21.40;99.90
23073;DHT22;67971;51.046;3.732;2023-07-02T06:51:23;21.70;99.90
23073;DHT22;67971;51.046;3.732;2023-07-02T06:53:50;21.70;99.90
23073;DHT22;67971;51.046;3.732;2023-07-02T06:56:16;22.00;99.90
23073;DHT22;67971;51.046;3.732;2023-07-02T06:58:42;22.40;99.90
23073;DHT22;67971;51.046;3.732;2023-07-02T07:01:09;22.50;99.90
23073;DHT22;67971;51.046;3.732;2023-07-02T07:03:35;22.50;99.90
23073;DHT22;67971;51.046;3.732;2023-07-02T07:06:01;22.40;99.90
23073;DHT22;67971;51.046;3.732;2023-07-02T07:08:27;22.30;99.90
23073;DHT22;67971;51.046;3.732;2023-07-02T07:10:52;22.20;99.90
23073;DHT22;67971;51.046;3.732;2023-07-02T07:13:18;22.20;99.90
23073;DHT22;67971;51.046;3.732;2023-07-02T07:15:44;22.00;99.90
23073;DHT22;67971;51.046;3.732;2023-07-02T07:18:10;22.30;99.90
23073;DHT22;67971;51.046;3.732;2023-07-02T07:20:36;22.50;99.90
23073;DHT22;67971;51.046;3.732;2023-07-02T07:23:05;22.60;99.90
23073;DHT22;67971;51.046;3.732;2023-07-02T07:25:30;22.50;99.90
23073;DHT22;67971;51.046;3.732;2023-07-02T07:27:57;22.40;99.90
23073;DHT22;67971;51.046;3.732;2023-07-02T07:30:22;22.60;99.90
23073;DHT22;67971;51.046;3.732;2023-07-02T07:32:52;22.90;99.90
23073;DHT22;67971;51.046;3.732;2023-07-02T07:35:19;23.10;99.90
23073;DHT22;67971;51.046;3.732;2023-07-02T07:37:45;23.30;99.90
23073;DHT22;67971;51.046;3.732;2023-07-02T07:40:11;23.50;99.90
23073;DHT22;67971;51.046;3.732;2023-07-02T07:42:37;23.50;99.90
23073;DHT22;67971;51.046;3.732;2023-07-02T07:45:03;23.50;99.90
23073;DHT22;67971;51.046;3.732;2023-07-02T07:47:29;23.60;99.90
23073;DHT22;67971;51.046;3.732;2023-07-02T07:49:54;23.70;99.90
23073;DHT22;67971;51.046;3.732;2023-07-02T07:52:20;23.70;99.90
23073;DHT22;67971;51.046;3.732;2023-07-02T07:54:46;23.80;99.90
23073;DHT22;67971;51.046;3.732;2023-07-02T07:57:12;23.80;99.90
23073;DHT22;67971;51.046;3.732;2023-07-02T07:59:38;23.60;99.90
23073;DHT22;67971;51.046;3.732;2023-07-02T08:02:03;23.50;99.90
23073;DHT22;67971;51.046;3.732;2023-07-02T08:04:29;23.60;99.90
23073;DHT22;67971;51.046;3.732;2023-07-02T08:06:55;23.30;99.90
23073;DHT22;67971;51.046;3.732;2023-07-02T08:09:23;23.20;99.90
23073;DHT22;67971;51.046;3.732;2023-07-02T08:11:48;22.90;99.90
23073;DHT22;67971;51.046;3.732;2023-07-02T08:14:14;22.90;99.90
23073;DHT22;67971;51.046;3.732;2023-07-02T08:16:41;23.10;99.90
23073;DHT22;67971;51.046;3.732;2023-07-02T08:19:07;23.30;99.90
23073;DHT22;67971;51.046;3.732;2023-07-02T08:21:32;23.20;99.90
23073;DHT22;67971;51.046;3.732;2023-07-02T08:23:58;23.00;99.90
23073;DHT22;67971;51.046;3.732;2023-07-02T08:26:24;22.60;99.90
23073;DHT22;67971;51.046;3.732;2023-07-02T08:28:49;22.20;99.90
23073;DHT22;67971;51.046;3.732;2023-07-02T08:31:16;22.00;99.90
23073;DHT22;67971;51.046;3.732;2023-07-02T08:33:41;22.30;99.90
23073;DHT22;67971;51.046;3.732;2023-07-02T08:36:07;22.60;99.90
23073;DHT22;67971;51.046;3.732;2023-07-02T08:38:33;23.10;99.90
23073;DHT22;67971;51.046;3.732;2023-07-02T08:40:58;23.20;99.90
23073;DHT22;67971;51.046;3.732;2023-07-02T08:43:26;23.20;99.90
23073;DHT22;67971;51.046;3.732;2023-07-02T08:45:53;23.10;99.90
23073;DHT22;67971;51.046;3.732;2023-07-02T08:48:19;22.80;99.90
23073;DHT22;67971;51.046;3.732;2023-07-02T08:50:49;22.50;99.90
23073;DHT22;67971;51.046;3.732;2023-07-02T08:53:15;22.40;99.90
23073;DHT22;67971;51.046;3.732;2023-07-02T08:55:41;22.30;99.90
23073;DHT22;67971;51.046;3.732;2023-07-02T08:58:06;22.30;99.90
23073;DHT22;67971;51.046;3.732;2023-07-02T09:00:32;22.20;99.90
23073;DHT22;67971;51.046;3.732;2023-07-02T09:03:31;22.20;99.90
23073;DHT22;67971;51.046;3.732;2023-07-02T09:05:57;22.10;99.90
23073;DHT22;67971;51.046;3.732;2023-07-02T09:08:27;22.00;99.90
23073;DHT22;67971;51.046;3.732;2023-07-02T09:10:54;22.30;99.90
23073;DHT22;67971;51.046;3.732;2023-07-02T09:13:19;23.20;99.90
23073;DHT22;67971;51.046;3.732;2023-07-02T09:15:45;24.50;99.90
23073;DHT22;67971;51.046;3.732;2023-07-02T09:18:29;24.80;99.90
23073;DHT22;67971;51.046;3.732;2023-07-02T09:20:55;24.70;99.90
23073;DHT22;67971;51.046;3.732;2023-07-02T09:23:21;24.70;99.90
23073;DHT22;67971;51.046;3.732;2023-07-02T09:25:46;24.40;99.90
23073;DHT22;67971;51.046;3.732;2023-07-02T09:28:21;23.80;99.90
23073;DHT22;67971;51.046;3.732;2023-07-02T09:30:57;24.50;99.90
23073;DHT22;67971;51.046;3.732;2023-07-02T09:33:24;25.50;99.90
23073;DHT22;67971;51.046;3.732;2023-07-02T09:35:50;26.60;99.90
23073;DHT22;67971;51.046;3.732;2023-07-02T09:38:18;27.40;99.90
23073;DHT22;67971;51.046;3.732;2023-07-02T09:40:47;26.90;99.90
23073;DHT22;67971;51.046;3.732;2023-07-02T09:43:18;26.80;99.50
23073;DHT22;67971;51.046;3.732;2023-07-02T09:45:48;27.80;98.60
23073;DHT22;67971;51.046;3.732;2023-07-02T09:48:16;28.00;98.40
23073;DHT22;67971;51.046;3.732;2023-07-02T09:50:44;27.10;98.30
23073;DHT22;67971;51.046;3.732;2023-07-02T09:53:10;25.80;99.90
23073;DHT22;67971;51.046;3.732;2023-07-02T09:55:41;25.40;99.90
23073;DHT22;67971;51.046;3.732;2023-07-02T09:58:08;25.70;99.90
23073;DHT22;67971;51.046;3.732;2023-07-02T10:00:34;25.40;98.90
23073;DHT22;67971;51.046;3.732;2023-07-02T10:03:00;24.70;98.90
23073;DHT22;67971;51.046;3.732;2023-07-02T10:05:34;23.90;99.70
23073;DHT22;67971;51.046;3.732;2023-07-02T10:08:16;23.80;99.90
23073;DHT22;67971;51.046;3.732;2023-07-02T10:10:43;24.30;99.90
23073;DHT22;67971;51.046;3.732;2023-07-02T10:13:09;25.80;99.80
23073;DHT22;67971;51.046;3.732;2023-07-02T10:15:34;27.30;97.80
23073;DHT22;67971;51.046;3.732;2023-07-02T10:18:05;28.00;96.50
23073;DHT22;67971;51.046;3.732;2023-07-02T10:20:32;28.00;95.90
23073;DHT22;67971;51.046;3.732;2023-07-02T10:22:59;27.70;96.10
23073;DHT22;67971;51.046;3.732;2023-07-02T10:25:28;26.80;95.90
23073;DHT22;67971;51.046;3.732;2023-07-02T10:27:55;26.60;97.50
23073;DHT22;67971;51.046;3.732;2023-07-02T10:30:33;26.40;96.90
23073;DHT22;67971;51.046;3.732;2023-07-02T10:33:10;25.80;97.50
23073;DHT22;67971;51.046;3.732;2023-07-02T10:35:36;25.40;98.70
23073;DHT22;67971;51.046;3.732;2023-07-02T10:38:02;25.10;98.50
23073;DHT22;67971;51.046;3.732;2023-07-02T10:40:28;26.30;99.00
23073;DHT22;67971;51.046;3.732;2023-07-02T10:42:54;28.40;97.30
23073;DHT22;67971;51.046;3.732;2023-07-02T10:45:21;30.20;95.30
23073;DHT22;67971;51.046;3.732;2023-07-02T10:47:58;30.80;93.90
23073;DHT22;67971;51.046;3.732;2023-07-02T10:50:24;30.60;92.40
23073;DHT22;67971;51.046;3.732;2023-07-02T10:52:51;30.40;92.40
23073;DHT22;67971;51.046;3.732;2023-07-02T10:55:21;31.30;92.00
23073;DHT22;67971;51.046;3.732;2023-07-02T10:58:01;32.00;90.50
23073;DHT22;67971;51.046;3.732;2023-07-02T11:00:27;32.10;91.30
23073;DHT22;67971;51.046;3.732;2023-07-02T11:02:53;31.70;90.60
23073;DHT22;67971;51.046;3.732;2023-07-02T11:05:18;31.60;91.20
23073;DHT22;67971;51.046;3.732;2023-07-02T11:07:44;31.90;90.30
23073;DHT22;67971;51.046;3.732;2023-07-02T11:10:17;31.40;89.70
23073;DHT22;67971;51.046;3.732;2023-07-02T11:12:43;31.20;90.70
23073;DHT22;67971;51.046;3.732;2023-07-02T11:15:14;31.20;90.50
23073;DHT22;67971;51.046;3.732;2023-07-02T11:17:40;29.70;90.70
23073;DHT22;67971;51.046;3.732;2023-07-02T11:20:11;27.70;92.00
23073;DHT22;67971;51.046;3.732;2023-07-02T11:22:38;26.30;93.50
23073;DHT22;67971;51.046;3.732;2023-07-02T11:25:18;26.50;93.90
23073;DHT22;67971;51.046;3.732;2023-07-02T11:27:45;28.30;92.90
23073;DHT22;67971;51.046;3.732;2023-07-02T11:30:11;29.80;91.50
23073;DHT22;67971;51.046;3.732;2023-07-02T11:32:48;30.30;90.20
23073;DHT22;67971;51.046;3.732;2023-07-02T11:35:14;29.30;90.00
23073;DHT22;67971;51.046;3.732;2023-07-02T11:37:41;28.10;91.10
23073;DHT22;67971;51.046;3.732;2023-07-02T11:40:07;26.80;91.90
23073;DHT22;67971;51.046;3.732;2023-07-02T11:42:33;26.00;93.00
23073;DHT22;67971;51.046;3.732;2023-07-02T11:44:58;25.70;93.40
23073;DHT22;67971;51.046;3.732;2023-07-02T11:47:24;26.50;93.30
23073;DHT22;67971;51.046;3.732;2023-07-02T11:49:50;28.00;93.30
23073;DHT22;67971;51.046;3.732;2023-07-02T11:52:16;28.90;91.50
23073;DHT22;67971;51.046;3.732;2023-07-02T11:54:41;29.10;91.10
23073;DHT22;67971;51.046;3.732;2023-07-02T11:57:07;29.30;91.40
23073;DHT22;67971;51.046;3.732;2023-07-02T11:59:34;28.90;91.10
23073;DHT22;67971;51.046;3.732;2023-07-02T12:01:59;29.00;91.80
23073;DHT22;67971;51.046;3.732;2023-07-02T12:04:25;30.40;91.20
23073;DHT22;67971;51.046;3.732;2023-07-02T12:06:50;30.20;90.20
23073;DHT22;67971;51.046;3.732;2023-07-02T12:09:17;29.90;91.00
23073;DHT22;67971;51.046;3.732;2023-07-02T12:11:42;29.40;90.80
23073;DHT22;67971;51.046;3.732;2023-07-02T12:14:10;28.50;91.60
23073;DHT22;67971;51.046;3.732;2023-07-02T12:16:36;27.90;91.00
23073;DHT22;67971;51.046;3.732;2023-07-02T12:19:02;27.80;92.20
23073;DHT22;67971;51.046;3.732;2023-07-02T12:21:27;29.10;92.10
23073;DHT22;67971;51.046;3.732;2023-07-02T12:23:53;30.40;90.80
23073;DHT22;67971;51.046;3.732;2023-07-02T12:26:18;30.00;90.30
23073;DHT22;67971;51.046;3.732;2023-07-02T12:28:44;29.70;90.00
23073;DHT22;67971;51.046;3.732;2023-07-02T12:31:10;29.70;91.40
23073;DHT22;67971;51.046;3.732;2023-07-02T12:33:36;30.30;90.90
23073;DHT22;67971;51.046;3.732;2023-07-02T12:36:01;31.20;89.30
23073;DHT22;67971;51.046;3.732;2023-07-02T12:38:28;31.20;87.70
23073;DHT22;67971;51.046;3.732;2023-07-02T12:40:54;31.60;88.90
23073;DHT22;67971;51.046;3.732;2023-07-02T12:43:19;31.10;86.60
23073;DHT22;67971;51.046;3.732;2023-07-02T12:45:45;30.40;88.00
23073;DHT22;67971;51.046;3.732;2023-07-02T12:48:11;30.30;88.40
23073;DHT22;67971;51.046;3.732;2023-07-02T12:50:39;30.40;87.80
23073;DHT22;67971;51.046;3.732;2023-07-02T12:53:06;30.70;88.00
23073;DHT22;67971;51.046;3.732;2023-07-02T12:55:31;32.10;89.00
23073;DHT22;67971;51.046;3.732;2023-07-02T12:57:57;33.00;84.20
23073;DHT22;67971;51.046;3.732;2023-07-02T13:00:23;33.40;83.50
23073;DHT22;67971;51.046;3.732;2023-07-02T13:02:49;33.10;83.60
23073;DHT22;67971;51.046;3.732;2023-07-02T13:05:15;31.90;84.50
23073;DHT22;67971;51.046;3.732;2023-07-02T13:07:40;30.50;86.70
23073;DHT22;67971;51.046;3.732;2023-07-02T13:10:06;29.20;88.40
23073;DHT22;67971;51.046;3.732;2023-07-02T13:12:32;28.70;89.50
23073;DHT22;67971;51.046;3.732;2023-07-02T13:14:58;29.50;89.80
23073;DHT22;67971;51.046;3.732;2023-07-02T13:17:24;30.90;87.40
23073;DHT22;67971;51.046;3.732;2023-07-02T13:19:49;31.60;84.90
23073;DHT22;67971;51.046;3.732;2023-07-02T13:22:15;32.00;83.00
23073;DHT22;67971;51.046;3.732;2023-07-02T13:24:41;30.80;83.50
23073;DHT22;67971;51.046;3.732;2023-07-02T13:27:13;29.30;86.30
23073;DHT22;67971;51.046;3.732;2023-07-02T13:29:40;28.30;87.30
23073;DHT22;67971;51.046;3.732;2023-07-02T13:32:06;29.10;89.60
23073;DHT22;67971;51.046;3.732;2023-07-02T13:34:32;29.20;88.50
23073;DHT22;67971;51.046;3.732;2023-07-02T13:36:58;28.90;88.50
23073;DHT22;67971;51.046;3.732;2023-07-02T13:39:23;28.90;88.50
23073;DHT22;67971;51.046;3.732;2023-07-02T13:41:50;28.50;88.00
23073;DHT22;67971;51.046;3.732;2023-07-02T13:44:16;29.50;86.90
23073;DHT22;67971;51.046;3.732;2023-07-02T13:46:43;30.70;87.30
23073;DHT22;67971;51.046;3.732;2023-07-02T13:49:10;31.40;84.00
23073;DHT22;67971;51.046;3.732;2023-07-02T13:51:36;30.30;83.90
23073;DHT22;67971;51.046;3.732;2023-07-02T13:54:01;29.80;86.50
23073;DHT22;67971;51.046;3.732;2023-07-02T13:56:27;30.60;84.60
23073;DHT22;67971;51.046;3.732;2023-07-02T14:01:22;32.30;81.30
23073;DHT22;67971;51.046;3.732;2023-07-02T14:03:48;33.00;81.00
23073;DHT22;67971;51.046;3.732;2023-07-02T14:06:14;33.20;81.50
23073;DHT22;67971;51.046;3.732;2023-07-02T14:08:40;33.20;80.40
23073;DHT22;67971;51.046;3.732;2023-07-02T14:11:06;34.00;78.80
23073;DHT22;67971;51.046;3.732;2023-07-02T14:13:32;33.90;76.70
23073;DHT22;67971;51.046;3.732;2023-07-02T14:15:59;33.10;76.90
23073;DHT22;67971;51.046;3.732;2023-07-02T14:18:25;33.00;77.80
23073;DHT22;67971;51.046;3.732;2023-07-02T14:20:51;32.00;79.50
23073;DHT22;67971;51.046;3.732;2023-07-02T14:23:16;30.70;81.60
23073;DHT22;67971;51.046;3.732;2023-07-02T14:25:42;30.40;83.20
23073;DHT22;67971;51.046;3.732;2023-07-02T14:28:08;30.80;82.30
23073;DHT22;67971;51.046;3.732;2023-07-02T14:30:34;31.90;81.90
23073;DHT22;67971;51.046;3.732;2023-07-02T14:33:00;30.80;81.60
23073;DHT22;67971;51.046;3.732;2023-07-02T14:35:25;30.00;82.90
23073;DHT22;67971;51.046;3.732;2023-07-02T14:37:54;29.10;84.20
23073;DHT22;67971;51.046;3.732;2023-07-02T14:40:19;28.50;85.90
23073;DHT22;67971;51.046;3.732;2023-07-02T14:42:45;27.80;86.90
23073;DHT22;67971;51.046;3.732;2023-07-02T14:45:11;27.40;88.40
23073;DHT22;67971;51.046;3.732;2023-07-02T14:47:37;28.20;88.50
23073;DHT22;67971;51.046;3.732;2023-07-02T14:50:03;29.60;84.80
23073;DHT22;67971;51.046;3.732;2023-07-02T14:52:29;30.90;82.50
23073;DHT22;67971;51.046;3.732;2023-07-02T14:54:55;31.40;82.30
23073;DHT22;67971;51.046;3.732;2023-07-02T14:57:20;31.20;80.70
23073;DHT22;67971;51.046;3.732;2023-07-02T14:59:47;29.90;82.60
23073;DHT22;67971;51.046;3.732;2023-07-02T15:02:15;28.80;85.20
23073;DHT22;67971;51.046;3.732;2023-07-02T15:04:41;28.40;86.30
23073;DHT22;67971;51.046;3.732;2023-07-02T15:07:06;29.40;85.70
23073;DHT22;67971;51.046;3.732;2023-07-02T15:09:32;30.60;81.90
23073;DHT22;67971;51.046;3.732;2023-07-02T15:11:58;31.40;81.50
23073;DHT22;67971;51.046;3.732;2023-07-02T15:14:24;31.60;81.00
23073;DHT22;67971;51.046;3.732;2023-07-02T15:16:49;31.40;79.90
23073;DHT22;67971;51.046;3.732;2023-07-02T15:19:17;30.90;81.90
23073;DHT22;67971;51.046;3.732;2023-07-02T15:21:42;31.00;81.40
23073;DHT22;67971;51.046;3.732;2023-07-02T15:24:08;31.10;82.30
23073;DHT22;67971;51.046;3.732;2023-07-02T15:26:39;31.60;81.70
23073;DHT22;67971;51.046;3.732;2023-07-02T15:29:05;30.60;81.50